createdAt,value
2023-02-19T00:01:54.374Z,3.13
2023-02-19T00:06:57.356Z,3.08
2023-02-19T00:12:00.255Z,3.08
2023-02-19T00:17:03.208Z,3.30
2023-02-19T00:22:05.933Z,3.70
2023-02-19T00:27:08.761Z,2.88
2023-02-19T00:32:11.574Z,3.05
2023-02-19T00:37:14.326Z,2.88
2023-02-19T00:42:17.073Z,3.60
2023-02-19T00:47:20.125Z,3.22
2023-02-19T00:52:23.436Z,3.67
2023-02-19T00:57:26.265Z,3.83
2023-02-19T01:02:29.101Z,4.32
2023-02-19T01:07:35.338Z,4.85
2023-02-19T01:12:38.259Z,4.93
2023-02-19T01:17:40.963Z,5.45
2023-02-19T01:22:43.803Z,5.95
2023-02-19T01:27:47.070Z,6.70
2023-02-19T01:32:49.836Z,5.68
2023-02-19T01:37:54.673Z,6.15
2023-02-19T01:42:57.618Z,5.65
2023-02-19T01:48:27.905Z,4.68
2023-02-19T01:53:38.228Z,5.45
2023-02-19T01:58:41.442Z,5.05
2023-02-19T02:03:47.398Z,4.03
2023-02-19T02:09:14.584Z,3.75
2023-02-19T02:14:20.794Z,3.90
2023-02-19T02:19:27.386Z,3.33
2023-02-19T02:24:34.742Z,4.15
2023-02-19T02:30:05.956Z,3.47
2023-02-19T02:35:13.609Z,4.35
2023-02-19T02:40:19.113Z,4.35
2023-02-19T02:45:36.002Z,4.38
2023-02-19T02:51:14.138Z,4.35
2023-02-19T02:56:38.151Z,3.88
2023-02-19T03:02:14.907Z,4.05
2023-02-19T03:07:18.982Z,3.97
2023-02-19T03:12:42.414Z,4.32
2023-02-19T03:18:11.923Z,3.85
2023-02-19T03:23:18.098Z,3.85
2023-02-19T03:28:43.225Z,4.10
2023-02-19T03:33:54.039Z,4.20
2023-02-19T03:39:04.836Z,4.03
2023-02-19T03:44:37.327Z,4.13
2023-02-19T03:49:40.720Z,4.38
2023-02-19T03:55:02.741Z,5.13
2023-02-19T04:05:30.347Z,5.18
2023-02-19T04:10:34.226Z,5.00
2023-02-19T04:20:45.906Z,5.45
2023-02-19T04:25:52.528Z,5.28
2023-02-19T04:30:55.787Z,4.40
2023-02-19T04:35:58.772Z,4.70
2023-02-19T04:41:01.575Z,4.80
2023-02-19T04:46:04.477Z,4.20
2023-02-19T04:51:08.843Z,4.15
2023-02-19T04:56:15.150Z,4.10
2023-02-19T05:01:18.028Z,4.00
2023-02-19T05:06:20.835Z,4.15
2023-02-19T05:11:24.214Z,4.18
2023-02-19T05:16:26.962Z,4.32
2023-02-19T05:21:29.981Z,4.88
2023-02-19T05:26:32.744Z,5.05
2023-02-19T05:31:35.734Z,5.88
2023-02-19T05:36:39.882Z,6.75
2023-02-19T05:41:42.667Z,6.28
2023-02-19T05:46:45.603Z,5.75
2023-02-19T05:51:51.665Z,6.53
2023-02-19T05:56:54.220Z,6.45
2023-02-19T06:01:58.505Z,6.32
2023-02-19T06:07:01.192Z,6.47
2023-02-19T06:12:04.162Z,7.75
2023-02-19T06:17:06.952Z,7.53
2023-02-19T06:22:10.583Z,7.70
2023-02-19T06:27:13.750Z,8.02
2023-02-19T06:32:17.421Z,8.55
2023-02-19T06:37:20.461Z,8.48
2023-02-19T06:42:23.259Z,8.10
2023-02-19T06:47:26.289Z,8.23
2023-02-19T06:52:29.213Z,8.30
2023-02-19T06:57:32.408Z,8.48
2023-02-19T07:02:35.181Z,10.10
2023-02-19T07:07:38.148Z,8.57
2023-02-19T07:12:41.013Z,8.82
2023-02-19T07:17:43.848Z,8.10
2023-02-19T07:22:46.621Z,8.30
2023-02-19T07:27:49.657Z,8.70
2023-02-19T07:32:52.504Z,7.68
2023-02-19T07:37:55.566Z,7.32
2023-02-19T07:43:00.653Z,6.97
2023-02-19T07:48:03.950Z,7.68
2023-02-19T07:53:06.865Z,7.63
2023-02-19T07:58:09.595Z,7.53
2023-02-19T08:03:12.540Z,7.32
2023-02-19T08:08:16.552Z,7.47
2023-02-19T08:13:19.593Z,6.75
2023-02-19T08:18:24.600Z,6.28
2023-02-19T08:23:28.572Z,6.78
2023-02-19T08:28:31.843Z,6.50
2023-02-19T08:33:35.109Z,5.88
2023-02-19T08:38:38.136Z,6.75
2023-02-19T08:43:42.549Z,6.88
2023-02-19T08:48:45.483Z,6.38
2023-02-19T08:53:48.562Z,5.85
2023-02-19T08:58:51.532Z,5.65
2023-02-19T09:03:54.973Z,5.78
2023-02-19T09:08:57.813Z,5.57
2023-02-19T09:14:02.401Z,5.57
2023-02-19T09:19:05.420Z,5.20
2023-02-19T09:24:09.872Z,5.32
2023-02-19T09:29:19.472Z,4.55
2023-02-19T09:34:33.448Z,5.40
2023-02-19T09:39:36.991Z,4.35
2023-02-19T09:44:42.527Z,4.75
2023-02-19T09:49:52.378Z,3.95
2023-02-19T09:54:59.609Z,3.55
2023-02-19T10:00:25.928Z,3.90
2023-02-19T10:05:29.560Z,4.20
2023-02-19T10:10:37.813Z,3.28
2023-02-19T10:16:16.093Z,3.83
2023-02-19T10:21:22.886Z,3.85
2023-02-19T10:26:26.011Z,3.53
2023-02-19T10:31:32.051Z,3.67
2023-02-19T10:36:45.565Z,3.75
2023-02-19T10:41:50.900Z,5.22
2023-02-19T10:46:57.103Z,3.15
2023-02-19T10:52:29.753Z,3.25
2023-02-19T10:57:34.735Z,3.40
2023-02-19T11:02:37.627Z,3.70
2023-02-19T11:07:46.649Z,4.35
2023-02-19T11:12:52.218Z,4.45
2023-02-19T11:18:01.919Z,4.32
2023-02-19T11:23:18.285Z,3.65
2023-02-19T11:28:39.132Z,3.70
2023-02-19T11:33:49.195Z,3.10
2023-02-19T11:38:52.263Z,4.40
2023-02-19T11:44:06.970Z,3.88
2023-02-19T11:49:18.108Z,3.65
2023-02-19T11:54:54.834Z,3.85
2023-02-19T12:00:23.018Z,3.45
2023-02-19T12:05:40.078Z,4.97
2023-02-19T12:11:09.370Z,3.78
2023-02-19T12:16:26.860Z,3.45
2023-02-19T12:21:51.716Z,3.92
2023-02-19T12:27:16.329Z,3.40
2023-02-19T12:32:28.603Z,3.90
2023-02-19T12:38:00.726Z,5.20
2023-02-19T12:43:15.779Z,5.25
2023-02-19T12:48:26.242Z,3.95
2023-02-19T12:53:33.467Z,3.75
2023-02-19T12:58:43.588Z,3.45
2023-02-19T13:04:04.925Z,3.97
2023-02-19T13:09:20.090Z,4.07
2023-02-19T13:14:30.249Z,3.90
2023-02-19T13:19:33.915Z,3.92
2023-02-19T13:24:42.321Z,4.57
2023-02-19T13:30:07.139Z,2.97
2023-02-19T13:35:18.620Z,3.40
2023-02-19T13:40:37.450Z,3.60
2023-02-19T13:45:46.189Z,4.03
2023-02-19T13:50:49.271Z,4.00
2023-02-19T13:55:53.526Z,3.35
2023-02-19T14:00:56.739Z,3.80
2023-02-19T14:06:04.610Z,3.35
2023-02-19T14:11:08.773Z,2.78
2023-02-19T14:16:33.628Z,3.20
2023-02-19T14:21:39.382Z,3.72
2023-02-19T14:26:43.063Z,3.72
2023-02-19T14:31:47.260Z,3.58
2023-02-19T14:36:55.826Z,3.47
2023-02-19T14:42:03.107Z,4.22
2023-02-19T14:47:09.763Z,4.57
2023-02-19T14:52:28.780Z,5.00
2023-02-19T14:57:43.968Z,8.27
2023-02-19T15:02:46.942Z,4.57
2023-02-19T15:07:51.793Z,3.60
2023-02-19T15:12:58.226Z,3.97
2023-02-19T15:18:03.096Z,3.25
2023-02-19T15:28:39.071Z,3.60
2023-02-19T15:33:50.714Z,3.25
2023-02-19T15:38:56.317Z,3.80
2023-02-19T15:44:21.484Z,4.13
2023-02-19T15:49:37.838Z,4.53
2023-02-19T15:54:56.236Z,2.90
2023-02-19T16:00:27.601Z,3.95
2023-02-19T16:05:31.491Z,4.22
2023-02-19T16:10:34.416Z,3.90
2023-02-19T16:15:40.147Z,3.85
2023-02-19T16:20:47.780Z,3.60
2023-02-19T16:26:00.271Z,4.03
2023-02-19T16:31:06.279Z,5.07
2023-02-19T16:36:20.772Z,4.60
2023-02-19T16:41:23.746Z,5.15
2023-02-19T16:46:26.444Z,4.40
2023-02-19T16:51:29.496Z,5.57
2023-02-19T16:56:32.524Z,6.15
2023-02-19T17:01:37.134Z,5.65
2023-02-19T17:06:40.364Z,5.65
2023-02-19T17:11:43.290Z,5.35
2023-02-19T17:16:46.493Z,5.40
2023-02-19T17:21:50.367Z,5.40
2023-02-19T17:26:53.316Z,5.82
2023-02-19T17:31:56.438Z,5.47
2023-02-19T17:36:59.940Z,4.82
2023-02-19T17:42:03.489Z,5.60
2023-02-19T17:47:06.856Z,5.38
2023-02-19T17:52:10.815Z,5.35
2023-02-19T17:57:13.832Z,5.68
2023-02-19T18:02:17.143Z,5.18
2023-02-19T18:07:20.238Z,5.50
2023-02-19T18:12:25.972Z,5.22
2023-02-19T18:17:28.931Z,5.50
2023-02-19T18:22:36.742Z,5.40
2023-02-19T18:27:39.817Z,6.03
2023-02-19T18:32:42.888Z,5.80
2023-02-19T18:37:46.348Z,5.43
2023-02-19T18:43:34.245Z,5.30
2023-02-19T18:49:53.471Z,6.00
2023-02-19T19:02:29.718Z,5.25
2023-02-19T21:16:22.150Z,6.38
2023-02-19T22:35:51.326Z,6.35
2023-02-19T22:42:39.295Z,6.88
2023-02-19T23:48:06.881Z,7.82
2023-02-19T23:54:28.056Z,7.90
